createdAt,value
2023-03-05T00:00:37.746Z,97874.81
2023-03-05T00:01:41.193Z,97876.22
2023-03-05T00:02:44.199Z,97882.31
2023-03-05T00:03:47.201Z,97876.69
2023-03-05T00:04:50.042Z,97879.25
2023-03-05T00:05:57.908Z,97880.13
2023-03-05T00:07:01.014Z,97882.22
2023-03-05T00:08:04.337Z,97878.06
2023-03-05T00:09:07.674Z,97882.53
2023-03-05T00:10:11.025Z,97877.47
2023-03-05T00:11:14.005Z,97881.22
2023-03-05T00:12:17.453Z,97881.75
2023-03-05T00:13:20.330Z,97884.50
2023-03-05T00:14:23.477Z,97880.06
2023-03-05T00:15:26.326Z,97882.44
2023-03-05T00:16:29.930Z,97890.44
2023-03-05T00:17:32.848Z,97883.06
2023-03-05T00:18:36.627Z,97882.97
2023-03-05T00:19:39.410Z,97878.78
2023-03-05T00:20:42.342Z,97885.44
2023-03-05T00:21:45.596Z,97880.28
2023-03-05T00:22:48.473Z,97878.00
2023-03-05T00:23:53.099Z,97878.22
2023-03-05T00:24:55.987Z,97879.00
2023-03-05T00:26:02.350Z,97881.00
2023-03-05T00:27:05.236Z,97879.66
2023-03-05T00:28:08.354Z,97883.78
2023-03-05T00:29:18.750Z,97880.44
2023-03-05T00:30:21.731Z,97883.38
2023-03-05T00:31:30.763Z,97878.00
2023-03-05T00:32:34.076Z,97879.41
2023-03-05T00:33:37.091Z,97878.16
2023-03-05T00:34:39.934Z,97881.97
2023-03-05T00:35:45.110Z,97872.69
2023-03-05T00:36:52.798Z,97874.72
2023-03-05T00:37:56.081Z,97875.13
2023-03-05T00:38:59.339Z,97873.16
2023-03-05T00:40:02.588Z,97871.06
2023-03-05T00:41:05.599Z,97878.94
2023-03-05T00:42:08.683Z,97874.81
2023-03-05T00:43:11.831Z,97876.78
2023-03-05T00:44:14.871Z,97872.31
2023-03-05T00:45:17.851Z,97868.28
2023-03-05T00:46:20.918Z,97866.19
2023-03-05T00:47:23.820Z,97872.31
2023-03-05T00:48:27.092Z,97869.97
2023-03-05T00:49:30.002Z,97865.59
2023-03-05T00:50:33.018Z,97858.09
2023-03-05T00:51:36.136Z,97863.41
2023-03-05T00:52:39.383Z,97854.81
2023-03-05T00:53:42.323Z,97863.94
2023-03-05T00:54:45.206Z,97852.59
2023-03-05T00:55:48.324Z,97855.16
2023-03-05T00:56:51.353Z,97857.53
2023-03-05T00:57:54.295Z,97852.59
2023-03-05T00:58:57.850Z,97851.03
2023-03-05T01:00:00.939Z,97851.81
2023-03-05T01:01:05.039Z,97855.56
2023-03-05T01:02:08.105Z,97854.22
2023-03-05T01:03:11.075Z,97844.25
2023-03-05T01:04:14.246Z,97841.41
2023-03-05T01:05:17.139Z,97838.06
2023-03-05T01:06:21.055Z,97851.97
2023-03-05T01:07:23.990Z,97843.78
2023-03-05T01:08:27.916Z,97841.03
2023-03-05T01:09:31.181Z,97846.03
2023-03-05T01:10:34.410Z,97832.81
2023-03-05T01:11:37.806Z,97846.16
2023-03-05T01:12:40.654Z,97833.84
2023-03-05T01:13:43.527Z,97838.31
2023-03-05T01:14:46.444Z,97843.72
2023-03-05T01:15:51.293Z,97838.78
2023-03-05T01:16:54.359Z,97840.28
2023-03-05T01:17:57.338Z,97844.72
2023-03-05T01:19:00.210Z,97848.78
2023-03-05T01:20:05.852Z,97848.09
2023-03-05T01:21:09.250Z,97854.09
2023-03-05T01:22:12.134Z,97841.00
2023-03-05T01:23:15.164Z,97840.69
2023-03-05T01:24:17.975Z,97844.50
2023-03-05T01:25:20.900Z,97843.41
2023-03-05T01:26:23.906Z,97852.00
2023-03-05T01:27:27.005Z,97850.19
2023-03-05T01:28:30.045Z,97845.59
2023-03-05T01:29:32.994Z,97847.62
2023-03-05T01:30:36.176Z,97850.69
2023-03-05T01:31:39.306Z,97849.44
2023-03-05T01:32:43.484Z,97844.81
2023-03-05T01:33:46.569Z,97851.94
2023-03-05T01:34:49.475Z,97847.31
2023-03-05T01:35:52.406Z,97860.59
2023-03-05T01:36:55.299Z,97856.22
2023-03-05T01:37:58.369Z,97852.31
2023-03-05T01:39:01.665Z,97860.81
2023-03-05T01:40:05.826Z,97854.88
2023-03-05T01:41:09.678Z,97854.59
2023-03-05T01:42:12.517Z,97853.66
2023-03-05T01:43:29.562Z,97855.44
2023-03-05T01:44:33.274Z,97851.28
2023-03-05T01:45:36.173Z,97852.00
2023-03-05T01:46:39.291Z,97858.72
2023-03-05T01:47:42.563Z,97847.78
2023-03-05T01:48:50.151Z,97854.25
2023-03-05T01:49:54.688Z,97854.41
2023-03-05T01:50:57.686Z,97845.81
2023-03-05T01:52:12.270Z,97849.44
2023-03-05T01:53:15.172Z,97844.50
2023-03-05T01:54:21.522Z,97852.00
2023-03-05T01:55:27.139Z,97848.50
2023-03-05T01:56:31.325Z,97846.38
2023-03-05T01:57:43.310Z,97846.94
2023-03-05T01:58:46.786Z,97846.13
2023-03-05T01:59:53.113Z,97848.41
2023-03-05T02:00:56.467Z,97844.09
2023-03-05T02:01:59.681Z,97842.78
2023-03-05T02:03:06.741Z,97839.19
2023-03-05T02:04:15.519Z,97839.03
2023-03-05T02:05:31.142Z,97849.19
2023-03-05T02:06:34.739Z,97842.47
2023-03-05T02:07:40.391Z,97842.91
2023-03-05T02:08:43.456Z,97839.91
2023-03-05T02:09:47.048Z,97840.66
2023-03-05T02:10:53.929Z,97840.19
2023-03-05T02:11:57.701Z,97833.88
2023-03-05T02:13:05.430Z,97837.69
2023-03-05T02:14:10.275Z,97842.47
2023-03-05T02:15:13.356Z,97841.66
2023-03-05T02:16:16.421Z,97836.13
2023-03-05T02:17:19.403Z,97838.94
2023-03-05T02:18:24.064Z,97840.56
2023-03-05T02:19:27.862Z,97845.84
2023-03-05T02:20:44.174Z,97839.16
2023-03-05T02:21:49.025Z,97840.09
2023-03-05T02:22:51.992Z,97836.81
2023-03-05T02:23:54.895Z,97847.38
2023-03-05T02:24:57.884Z,97847.91
2023-03-05T02:26:01.142Z,97838.75
2023-03-05T02:27:05.841Z,97834.72
2023-03-05T02:28:11.687Z,97835.78
2023-03-05T02:29:19.321Z,97847.91
2023-03-05T02:30:22.750Z,97836.97
2023-03-05T02:31:26.593Z,97839.16
2023-03-05T02:32:29.516Z,97837.22
2023-03-05T02:33:32.758Z,97841.59
2023-03-05T02:34:36.354Z,97837.28
2023-03-05T02:35:39.729Z,97845.09
2023-03-05T02:36:42.865Z,97845.81
2023-03-05T02:37:46.431Z,97833.22
2023-03-05T02:38:49.709Z,97840.28
2023-03-05T02:39:52.884Z,97844.37
2023-03-05T02:40:55.930Z,97836.87
2023-03-05T02:41:58.710Z,97841.31
2023-03-05T02:43:01.542Z,97844.59
2023-03-05T02:44:04.484Z,97841.22
2023-03-05T02:45:08.209Z,97844.69
2023-03-05T02:46:11.797Z,97840.59
2023-03-05T02:47:14.611Z,97844.28
2023-03-05T02:48:17.664Z,97844.37
2023-03-05T02:49:20.597Z,97847.25
2023-03-05T02:50:24.184Z,97844.13
2023-03-05T02:51:27.145Z,97843.75
2023-03-05T02:52:31.398Z,97844.47
2023-03-05T02:53:34.953Z,97849.75
2023-03-05T02:54:37.817Z,97840.56
2023-03-05T02:55:40.938Z,97836.00
2023-03-05T02:56:43.958Z,97836.87
2023-03-05T02:57:47.101Z,97835.87
2023-03-05T02:58:50.014Z,97832.97
2023-03-05T02:59:53.604Z,97836.66
2023-03-05T03:00:56.620Z,97831.09
2023-03-05T03:01:59.417Z,97826.91
2023-03-05T03:03:02.367Z,97825.22
2023-03-05T03:04:06.003Z,97827.75
2023-03-05T03:05:09.461Z,97821.16
2023-03-05T03:06:12.274Z,97826.25
2023-03-05T03:07:15.865Z,97824.62
2023-03-05T03:08:18.944Z,97816.66
2023-03-05T03:09:21.786Z,97823.06
2023-03-05T03:10:25.187Z,97822.59
2023-03-05T03:11:27.996Z,97820.97
2023-03-05T03:12:30.742Z,97822.22
2023-03-05T03:13:33.622Z,97826.44
2023-03-05T03:14:39.505Z,97821.28
2023-03-05T03:15:42.432Z,97820.25
2023-03-05T03:16:45.422Z,97824.03
2023-03-05T03:17:48.632Z,97825.75
2023-03-05T03:18:51.509Z,97824.91
2023-03-05T03:19:54.460Z,97829.50
2023-03-05T03:20:57.540Z,97828.16
2023-03-05T03:22:00.618Z,97818.88
2023-03-05T03:23:03.881Z,97826.78
2023-03-05T03:24:07.086Z,97822.16
2023-03-05T03:25:11.605Z,97826.69
2023-03-05T03:26:14.480Z,97828.56
2023-03-05T03:27:17.259Z,97825.28
2023-03-05T03:28:20.233Z,97824.53
2023-03-05T03:29:23.176Z,97819.00
2023-03-05T03:30:26.066Z,97821.59
2023-03-05T03:31:29.088Z,97823.56
2023-03-05T03:32:32.880Z,97821.28
2023-03-05T03:33:36.130Z,97821.75
2023-03-05T03:34:39.079Z,97826.53
2023-03-05T03:35:42.134Z,97824.59
2023-03-05T03:36:47.021Z,97821.00
2023-03-05T03:37:49.745Z,97818.22
2023-03-05T03:38:52.650Z,97818.63
2023-03-05T03:39:55.577Z,97817.56
2023-03-05T03:40:58.644Z,97820.13
2023-03-05T03:42:02.508Z,97821.53
2023-03-05T03:43:05.365Z,97822.72
2023-03-05T03:44:10.807Z,97817.25
2023-03-05T03:45:13.967Z,97813.63
2023-03-05T03:46:16.997Z,97812.22
2023-03-05T03:47:19.888Z,97823.56
2023-03-05T03:48:22.940Z,97819.34
2023-03-05T03:49:26.816Z,97817.00
2023-03-05T03:50:29.971Z,97824.69
2023-03-05T03:51:33.242Z,97818.25
2023-03-05T03:52:36.255Z,97823.25
2023-03-05T03:53:39.180Z,97823.56
2023-03-05T03:54:42.100Z,97825.50
2023-03-05T03:55:46.719Z,97824.81
2023-03-05T03:56:50.327Z,97827.69
2023-03-05T03:57:54.051Z,97830.91
2023-03-05T03:58:56.976Z,97821.13
2023-03-05T04:00:00.453Z,97826.81
2023-03-05T04:01:03.466Z,97829.66
2023-03-05T04:02:07.705Z,97829.00
2023-03-05T04:03:10.678Z,97828.22
2023-03-05T04:04:14.532Z,97829.47
2023-03-05T04:05:17.598Z,97826.72
2023-03-05T04:06:20.475Z,97825.09
2023-03-05T04:07:23.917Z,97825.41
2023-03-05T04:08:26.918Z,97823.44
2023-03-05T04:09:29.966Z,97829.00
2023-03-05T04:10:32.809Z,97825.78
2023-03-05T04:11:37.195Z,97815.19
2023-03-05T04:12:43.206Z,97824.25
2023-03-05T04:13:47.389Z,97818.88
2023-03-05T04:14:50.438Z,97826.91
2023-03-05T04:15:54.267Z,97821.97
2023-03-05T04:16:57.224Z,97814.72
2023-03-05T04:18:00.870Z,97820.03
2023-03-05T04:19:03.639Z,97819.69
2023-03-05T04:20:09.958Z,97817.97
2023-03-05T04:21:13.025Z,97817.09
2023-03-05T04:22:17.880Z,97826.03
2023-03-05T04:23:20.774Z,97822.13
2023-03-05T04:24:23.869Z,97822.66
2023-03-05T04:25:26.594Z,97821.28
2023-03-05T04:26:29.485Z,97814.88
2023-03-05T04:27:34.399Z,97824.59
2023-03-05T04:28:37.579Z,97819.28
2023-03-05T04:29:40.397Z,97815.38
2023-03-05T04:30:43.990Z,97816.41
2023-03-05T04:31:47.146Z,97810.19
2023-03-05T04:32:50.062Z,97814.09
2023-03-05T04:33:52.939Z,97813.94
2023-03-05T04:34:59.240Z,97817.19
2023-03-05T04:36:02.152Z,97816.19
2023-03-05T04:37:05.440Z,97810.44
2023-03-05T04:38:09.136Z,97807.97
2023-03-05T04:39:12.158Z,97807.44
2023-03-05T04:40:16.177Z,97810.75
2023-03-05T04:41:19.029Z,97811.16
2023-03-05T04:42:22.078Z,97810.31
2023-03-05T04:43:24.903Z,97807.97
2023-03-05T04:44:27.733Z,97811.06
2023-03-05T04:45:30.703Z,97816.09
2023-03-05T04:46:33.422Z,97811.75
2023-03-05T04:47:37.268Z,97805.66
2023-03-05T04:48:40.793Z,97806.66
2023-03-05T04:49:43.856Z,97807.44
2023-03-05T04:50:46.695Z,97799.53
2023-03-05T04:51:49.875Z,97809.59
2023-03-05T04:52:52.705Z,97808.50
2023-03-05T04:53:55.689Z,97801.03
2023-03-05T04:54:58.662Z,97801.91
2023-03-05T04:56:01.825Z,97801.53
2023-03-05T04:57:05.184Z,97802.50
2023-03-05T04:58:08.275Z,97802.81
2023-03-05T04:59:11.450Z,97803.84
2023-03-05T05:00:17.078Z,97801.31
2023-03-05T05:01:20.572Z,97810.34
2023-03-05T05:02:23.583Z,97810.06
2023-03-05T05:03:26.446Z,97807.25
2023-03-05T05:04:30.045Z,97809.59
2023-03-05T05:05:33.142Z,97803.09
2023-03-05T05:06:36.491Z,97808.56
2023-03-05T05:07:39.528Z,97798.97
2023-03-05T05:08:42.452Z,97804.47
2023-03-05T05:09:45.356Z,97799.91
2023-03-05T05:11:00.228Z,97800.94
2023-03-05T05:12:03.253Z,97795.03
2023-03-05T05:13:06.710Z,97800.75
2023-03-05T05:14:09.596Z,97798.25
2023-03-05T05:15:13.101Z,97797.00
2023-03-05T05:16:16.510Z,97794.81
2023-03-05T05:17:19.460Z,97795.06
2023-03-05T05:18:23.020Z,97797.13
2023-03-05T05:19:26.047Z,97790.91
2023-03-05T05:20:29.156Z,97791.53
2023-03-05T05:21:32.634Z,97801.38
2023-03-05T05:22:35.676Z,97803.28
2023-03-05T05:23:39.064Z,97799.63
2023-03-05T05:24:41.995Z,97803.47
2023-03-05T05:25:45.742Z,97808.69
2023-03-05T05:26:49.180Z,97806.47
2023-03-05T05:27:52.697Z,97803.75
2023-03-05T05:28:55.697Z,97802.84
2023-03-05T05:29:58.601Z,97803.03
2023-03-05T05:31:06.969Z,97806.56
2023-03-05T05:32:10.004Z,97803.47
2023-03-05T05:33:12.966Z,97801.53
2023-03-05T05:34:16.619Z,97811.88
2023-03-05T05:35:19.467Z,97803.69
2023-03-05T05:36:22.868Z,97798.00
2023-03-05T05:37:27.341Z,97799.38
2023-03-05T05:38:30.270Z,97803.16
2023-03-05T05:39:33.106Z,97803.03
2023-03-05T05:40:36.407Z,97806.28
2023-03-05T05:41:39.377Z,97805.13
2023-03-05T05:42:42.422Z,97816.19
2023-03-05T05:43:45.947Z,97818.16
2023-03-05T05:44:49.363Z,97822.03
2023-03-05T05:45:52.420Z,97821.19
2023-03-05T05:46:55.413Z,97834.88
2023-03-05T05:47:58.326Z,97823.56
2023-03-05T05:49:01.184Z,97824.13
2023-03-05T05:50:05.433Z,97824.13
2023-03-05T05:51:17.495Z,97824.28
2023-03-05T05:52:20.404Z,97832.75
2023-03-05T05:53:24.290Z,97827.53
2023-03-05T05:54:27.236Z,97834.63
2023-03-05T05:55:30.062Z,97838.41
2023-03-05T05:56:34.364Z,97836.13
2023-03-05T05:57:37.498Z,97835.87
2023-03-05T05:58:41.909Z,97834.81
2023-03-05T05:59:44.876Z,97832.16
2023-03-05T06:00:47.714Z,97834.06
2023-03-05T06:01:50.971Z,97837.56
2023-03-05T06:02:53.801Z,97832.16
2023-03-05T06:03:57.971Z,97842.69
2023-03-05T06:05:00.784Z,97839.28
2023-03-05T06:06:03.760Z,97839.13
2023-03-05T06:07:06.988Z,97842.09
2023-03-05T06:08:10.450Z,97836.16
2023-03-05T06:09:13.538Z,97838.69
2023-03-05T06:10:16.368Z,97841.53
2023-03-05T06:11:19.735Z,97840.25
2023-03-05T06:12:22.674Z,97833.69
2023-03-05T06:13:25.605Z,97842.81
2023-03-05T06:14:28.495Z,97834.72
2023-03-05T06:15:31.582Z,97840.47
2023-03-05T06:16:35.192Z,97827.91
2023-03-05T06:17:38.488Z,97848.22
2023-03-05T06:18:41.862Z,97841.88
2023-03-05T06:19:44.692Z,97838.66
2023-03-05T06:21:07.927Z,97840.91
2023-03-05T06:22:11.408Z,97840.12
2023-03-05T06:23:14.236Z,97839.44
2023-03-05T06:24:19.536Z,97837.28
2023-03-05T06:25:22.779Z,97834.13
2023-03-05T06:26:26.638Z,97842.66
2023-03-05T06:27:29.597Z,97832.50
2023-03-05T06:28:33.235Z,97834.91
2023-03-05T06:29:36.107Z,97834.19
2023-03-05T06:30:39.428Z,97834.19
2023-03-05T06:31:42.341Z,97832.38
2023-03-05T06:32:45.132Z,97833.22
2023-03-05T06:33:48.633Z,97833.38
2023-03-05T06:34:51.700Z,97835.94
2023-03-05T06:35:54.646Z,97826.75
2023-03-05T06:36:57.819Z,97829.66
2023-03-05T06:38:00.829Z,97837.09
2023-03-05T06:39:04.866Z,97836.84
2023-03-05T06:40:08.966Z,97829.88
2023-03-05T06:41:18.561Z,97839.22
2023-03-05T06:42:21.488Z,97835.09
2023-03-05T06:43:24.363Z,97839.44
2023-03-05T06:44:27.258Z,97842.31
2023-03-05T06:45:30.153Z,97831.97
2023-03-05T06:46:35.499Z,97835.16
2023-03-05T06:47:39.219Z,97837.50
2023-03-05T06:48:43.547Z,97845.19
2023-03-05T06:49:46.474Z,97837.41
2023-03-05T06:50:49.496Z,97842.13
2023-03-05T06:51:52.779Z,97837.84
2023-03-05T06:52:55.681Z,97843.44
2023-03-05T06:54:11.581Z,97838.31
2023-03-05T06:55:14.458Z,97839.38
2023-03-05T06:56:18.716Z,97834.66
2023-03-05T06:57:23.254Z,97846.75
2023-03-05T06:58:26.434Z,97845.44
2023-03-05T06:59:29.260Z,97837.97
2023-03-05T07:00:32.164Z,97845.91
2023-03-05T07:01:35.537Z,97840.47
2023-03-05T07:02:38.828Z,97841.72
2023-03-05T07:03:43.225Z,97842.94
2023-03-05T07:04:46.551Z,97842.03
2023-03-05T07:05:49.467Z,97845.22
2023-03-05T07:06:52.598Z,97844.94
2023-03-05T07:07:55.581Z,97843.59
2023-03-05T07:09:01.556Z,97844.87
2023-03-05T07:10:07.832Z,97829.09
2023-03-05T07:11:16.153Z,97843.81
2023-03-05T07:12:19.219Z,97840.06
2023-03-05T07:13:22.308Z,97846.97
2023-03-05T07:14:25.565Z,97837.78
2023-03-05T07:15:28.467Z,97840.97
2023-03-05T07:16:34.381Z,97846.53
2023-03-05T07:17:37.548Z,97842.63
2023-03-05T07:18:40.564Z,97840.59
2023-03-05T07:19:44.283Z,97840.88
2023-03-05T07:20:47.541Z,97846.44
2023-03-05T07:21:50.683Z,97841.81
2023-03-05T07:22:54.003Z,97838.94
2023-03-05T07:23:59.369Z,97844.87
2023-03-05T07:25:02.223Z,97831.22
2023-03-05T07:26:07.266Z,97843.56
2023-03-05T07:27:10.408Z,97843.78
2023-03-05T07:28:13.416Z,97843.25
2023-03-05T07:29:16.549Z,97845.56
2023-03-05T07:30:20.062Z,97844.28
2023-03-05T07:31:27.678Z,97850.34
2023-03-05T07:32:31.398Z,97845.72
2023-03-05T07:33:38.131Z,97852.75
2023-03-05T07:34:41.171Z,97843.78
2023-03-05T07:35:44.433Z,97846.03
2023-03-05T07:36:51.608Z,97844.31
2023-03-05T07:37:56.151Z,97848.38
2023-03-05T07:38:59.263Z,97844.44
2023-03-05T07:40:02.272Z,97836.13
2023-03-05T07:41:10.851Z,97847.53
2023-03-05T07:42:13.946Z,97844.69
2023-03-05T07:43:18.120Z,97840.91
2023-03-05T07:44:21.515Z,97843.22
2023-03-05T07:45:24.450Z,97842.69
2023-03-05T07:46:30.296Z,97845.63
2023-03-05T07:47:33.237Z,97835.78
2023-03-05T07:48:36.363Z,97844.31
2023-03-05T07:49:41.827Z,97843.53
2023-03-05T07:50:44.972Z,97843.81
2023-03-05T07:51:48.188Z,97850.06
2023-03-05T07:52:51.180Z,97840.19
2023-03-05T07:53:56.201Z,97836.69
2023-03-05T07:54:59.068Z,97838.38
2023-03-05T07:56:02.241Z,97836.37
2023-03-05T07:57:06.410Z,97842.84
2023-03-05T07:58:09.406Z,97844.25
2023-03-05T07:59:13.889Z,97837.19
2023-03-05T08:00:17.603Z,97835.47
2023-03-05T08:01:20.840Z,97830.56
2023-03-05T08:02:23.903Z,97835.28
2023-03-05T08:03:27.010Z,97837.37
2023-03-05T08:04:32.241Z,97835.59
2023-03-05T08:05:35.782Z,97831.00
2023-03-05T08:06:42.178Z,97828.16
2023-03-05T08:07:45.078Z,97835.72
2023-03-05T08:08:48.413Z,97828.75
2023-03-05T08:09:51.615Z,97825.59
2023-03-05T08:10:54.652Z,97829.41
2023-03-05T08:11:57.740Z,97831.50
2023-03-05T08:13:00.637Z,97833.09
2023-03-05T08:14:04.837Z,97826.94
2023-03-05T08:15:08.389Z,97837.41
2023-03-05T08:16:20.298Z,97830.97
2023-03-05T08:17:23.619Z,97845.25
2023-03-05T08:18:26.819Z,97835.28
2023-03-05T08:19:29.725Z,97836.84
2023-03-05T08:20:35.816Z,97831.41
2023-03-05T08:21:38.920Z,97822.34
2023-03-05T08:22:41.869Z,97836.34
2023-03-05T08:23:44.847Z,97837.44
2023-03-05T08:24:47.780Z,97825.84
2023-03-05T08:25:50.573Z,97831.44
2023-03-05T08:26:53.360Z,97829.94
2023-03-05T08:27:56.304Z,97830.16
2023-03-05T08:28:59.432Z,97822.72
2023-03-05T08:30:03.048Z,97832.84
2023-03-05T08:31:15.272Z,97830.72
2023-03-05T08:32:19.052Z,97838.03
2023-03-05T08:33:22.104Z,97821.69
2023-03-05T08:34:25.075Z,97826.84
2023-03-05T08:35:28.012Z,97825.53
2023-03-05T08:36:31.181Z,97834.63
2023-03-05T08:37:34.070Z,97837.00
2023-03-05T08:38:37.687Z,97833.09
2023-03-05T08:39:40.469Z,97831.31
2023-03-05T08:40:43.536Z,97833.12
2023-03-05T08:41:46.409Z,97822.44
2023-03-05T08:42:49.444Z,97825.22
2023-03-05T08:43:52.464Z,97824.44
2023-03-05T08:44:55.289Z,97826.22
2023-03-05T08:45:59.829Z,97830.59
2023-03-05T08:47:03.063Z,97820.75
2023-03-05T08:48:06.320Z,97815.50
2023-03-05T08:49:11.183Z,97813.47
2023-03-05T08:50:13.970Z,97815.53
2023-03-05T08:51:19.467Z,97818.59
2023-03-05T08:52:22.971Z,97816.06
2023-03-05T08:53:25.892Z,97805.78
2023-03-05T08:54:28.886Z,97812.56
2023-03-05T08:55:31.794Z,97813.63
2023-03-05T08:56:35.578Z,97812.78
2023-03-05T08:57:38.598Z,97822.66
2023-03-05T08:58:41.724Z,97811.53
2023-03-05T08:59:44.776Z,97816.50
2023-03-05T09:00:47.583Z,97819.63
2023-03-05T09:01:50.692Z,97816.25
2023-03-05T09:02:53.713Z,97819.38
2023-03-05T09:03:57.058Z,97815.44
2023-03-05T09:04:59.806Z,97823.50
2023-03-05T09:06:05.218Z,97819.13
2023-03-05T09:07:08.183Z,97822.00
2023-03-05T09:08:11.453Z,97819.88
2023-03-05T09:09:14.442Z,97820.16
2023-03-05T09:10:18.745Z,97817.31
2023-03-05T09:11:22.132Z,97816.56
2023-03-05T09:12:25.936Z,97815.00
2023-03-05T09:13:29.253Z,97809.81
2023-03-05T09:14:32.472Z,97819.16
2023-03-05T09:15:35.381Z,97821.75
2023-03-05T09:16:40.709Z,97811.38
2023-03-05T09:17:43.725Z,97823.56
2023-03-05T09:18:46.853Z,97823.81
2023-03-05T09:19:50.313Z,97823.28
2023-03-05T09:20:53.577Z,97819.91
2023-03-05T09:21:57.166Z,97821.47
2023-03-05T09:23:00.254Z,97809.28
2023-03-05T09:24:03.743Z,97818.09
2023-03-05T09:25:07.575Z,97815.00
2023-03-05T09:26:12.451Z,97822.25
2023-03-05T09:27:15.534Z,97819.91
2023-03-05T09:28:18.507Z,97814.94
2023-03-05T09:29:21.336Z,97824.53
2023-03-05T09:30:24.308Z,97817.31
2023-03-05T09:31:27.704Z,97814.97
2023-03-05T09:32:31.264Z,97814.72
2023-03-05T09:33:34.970Z,97811.59
2023-03-05T09:34:38.102Z,97812.13
2023-03-05T09:35:41.395Z,97815.22
2023-03-05T09:36:44.437Z,97809.28
2023-03-05T09:37:47.376Z,97800.75
2023-03-05T09:38:50.457Z,97797.91
2023-03-05T09:39:53.654Z,97805.94
2023-03-05T09:41:05.817Z,97802.59
2023-03-05T09:42:23.760Z,97811.13
2023-03-05T09:43:47.346Z,97805.69
2023-03-05T09:45:18.878Z,97802.59
2023-03-05T09:46:48.864Z,97801.53
2023-03-05T09:48:18.331Z,97810.09
2023-03-05T09:49:43.792Z,97797.41
2023-03-05T09:50:59.349Z,97807.22
2023-03-05T09:52:26.827Z,97796.34
2023-03-05T09:54:02.429Z,97793.25
2023-03-05T09:55:20.179Z,97797.91
2023-03-05T09:56:28.898Z,97790.91
2023-03-05T09:58:03.614Z,97796.63
2023-03-05T09:59:30.417Z,97794.25
2023-03-05T10:00:46.340Z,97800.00
2023-03-05T10:01:50.748Z,97800.25
2023-03-05T10:02:58.706Z,97801.53
2023-03-05T10:04:10.401Z,97794.28
2023-03-05T10:05:29.833Z,97792.97
2023-03-05T10:06:37.422Z,97790.91
2023-03-05T10:07:45.411Z,97783.66
2023-03-05T10:09:10.243Z,97785.47
2023-03-05T10:10:25.019Z,97783.37
2023-03-05T10:11:47.507Z,97788.56
2023-03-05T10:12:57.918Z,97795.59
2023-03-05T10:14:01.517Z,97780.56
2023-03-05T10:15:09.732Z,97786.75
2023-03-05T10:16:54.274Z,97790.13
2023-03-05T10:18:23.341Z,97784.66
2023-03-05T10:19:42.268Z,97787.78
2023-03-05T10:21:16.545Z,97785.97
2023-03-05T10:22:23.221Z,97788.06
2023-03-05T10:23:41.573Z,97781.06
2023-03-05T10:25:16.029Z,97778.19
2023-03-05T10:26:30.375Z,97777.94
2023-03-05T10:27:54.115Z,97774.03
2023-03-05T10:29:22.476Z,97765.50
2023-03-05T10:30:55.034Z,97771.47
2023-03-05T10:32:16.232Z,97769.63
2023-03-05T10:33:37.466Z,97767.06
2023-03-05T10:35:01.147Z,97763.94
2023-03-05T10:36:22.811Z,97767.53
2023-03-05T10:37:28.772Z,97760.78
2023-03-05T10:38:35.414Z,97762.31
2023-03-05T10:39:44.856Z,97764.66
2023-03-05T10:40:52.551Z,97767.22
2023-03-05T10:42:11.230Z,97763.53
2023-03-05T10:43:24.702Z,97768.44
2023-03-05T10:45:03.568Z,97773.63
2023-03-05T10:46:13.048Z,97773.81
2023-03-05T10:47:28.243Z,97779.50
2023-03-05T10:48:40.813Z,97774.84
2023-03-05T10:49:51.626Z,97776.69
2023-03-05T10:50:57.923Z,97774.16
2023-03-05T10:52:14.277Z,97771.28
2023-03-05T10:53:28.604Z,97774.63
2023-03-05T10:54:36.145Z,97773.34
2023-03-05T10:55:39.194Z,97765.22
2023-03-05T10:56:42.122Z,97761.59
2023-03-05T10:57:45.235Z,97759.28
2023-03-05T10:58:48.824Z,97761.88
2023-03-05T10:59:55.190Z,97757.00
2023-03-05T11:01:26.445Z,97764.50
2023-03-05T11:02:29.563Z,97760.56
2023-03-05T11:04:08.882Z,97755.47
2023-03-05T11:05:31.662Z,97745.66
2023-03-05T11:06:40.543Z,97743.06
2023-03-05T11:07:43.825Z,97746.16
2023-03-05T11:08:46.806Z,97747.97
2023-03-05T11:10:04.639Z,97750.56
2023-03-05T11:11:10.572Z,97744.56
2023-03-05T11:12:19.878Z,97740.66
2023-03-05T11:13:28.502Z,97743.22
2023-03-05T11:14:33.670Z,97735.81
2023-03-05T11:15:36.751Z,97742.84
2023-03-05T11:16:51.154Z,97728.31
2023-03-05T11:18:21.329Z,97729.09
2023-03-05T11:19:30.481Z,97724.44
2023-03-05T11:20:36.593Z,97736.13
2023-03-05T11:21:40.041Z,97733.75
2023-03-05T11:22:42.943Z,97729.75
2023-03-05T11:24:05.339Z,97731.94
2023-03-05T11:25:11.034Z,97733.84
2023-03-05T11:26:14.125Z,97729.50
2023-03-05T11:27:39.093Z,97722.53
2023-03-05T11:28:57.796Z,97729.59
2023-03-05T11:30:01.270Z,97729.87
2023-03-05T11:31:20.653Z,97723.09
2023-03-05T11:32:27.297Z,97731.41
2023-03-05T11:33:31.362Z,97730.41
2023-03-05T11:34:36.278Z,97727.50
2023-03-05T11:35:42.457Z,97726.50
2023-03-05T11:37:06.569Z,97730.34
2023-03-05T11:38:19.161Z,97720.72
2023-03-05T11:39:24.603Z,97713.72
2023-03-05T11:40:32.102Z,97721.72
2023-03-05T11:41:40.394Z,97716.31
2023-03-05T11:42:44.948Z,97719.41
2023-03-05T11:43:53.667Z,97712.28
2023-03-05T11:44:58.321Z,97709.84
2023-03-05T11:46:05.068Z,97710.69
2023-03-05T11:47:17.612Z,97706.69
2023-03-05T11:48:24.323Z,97704.44
2023-03-05T11:49:29.356Z,97699.94
2023-03-05T11:50:35.345Z,97699.63
2023-03-05T11:51:44.254Z,97706.56
2023-03-05T11:52:50.623Z,97703.50
2023-03-05T11:54:04.223Z,97696.50
2023-03-05T11:55:16.556Z,97697.22
2023-03-05T11:56:25.676Z,97699.59
2023-03-05T11:57:35.880Z,97698.75
2023-03-05T11:58:49.163Z,97697.09
2023-03-05T11:59:56.169Z,97695.25
2023-03-05T12:01:01.322Z,97691.31
2023-03-05T12:02:07.687Z,97696.78
2023-03-05T12:03:18.462Z,97688.31
2023-03-05T12:04:22.583Z,97682.84
2023-03-05T12:05:27.402Z,97682.19
2023-03-05T12:06:44.510Z,97678.97
2023-03-05T12:07:55.613Z,97680.22
2023-03-05T12:09:02.791Z,97679.19
2023-03-05T12:10:06.068Z,97679.75
2023-03-05T12:11:29.102Z,97670.75
2023-03-05T12:12:58.562Z,97679.44
2023-03-05T12:14:15.517Z,97677.19
2023-03-05T12:15:45.081Z,97669.09
2023-03-05T12:17:13.271Z,97667.69
2023-03-05T12:18:34.937Z,97664.38
2023-03-05T12:20:08.268Z,97658.31
2023-03-05T12:21:32.413Z,97665.75
2023-03-05T12:22:42.000Z,97665.62
2023-03-05T12:23:52.222Z,97660.25
2023-03-05T12:25:25.884Z,97655.72
2023-03-05T12:26:53.706Z,97645.75
2023-03-05T12:27:57.313Z,97663.88
2023-03-05T12:29:01.686Z,97651.75
2023-03-05T12:30:06.488Z,97647.31
2023-03-05T12:31:09.931Z,97643.69
2023-03-05T12:32:31.775Z,97647.28
2023-03-05T12:33:44.937Z,97647.69
2023-03-05T12:34:56.910Z,97641.19
2023-03-05T12:36:18.558Z,97640.34
2023-03-05T12:37:21.865Z,97636.28
2023-03-05T12:38:34.566Z,97630.72
2023-03-05T12:39:41.721Z,97617.41
2023-03-05T12:40:45.127Z,97629.38
2023-03-05T12:41:48.401Z,97629.87
2023-03-05T12:42:59.452Z,97628.63
2023-03-05T12:44:09.305Z,97625.44
2023-03-05T12:45:12.912Z,97621.91
2023-03-05T12:46:33.700Z,97623.53
2023-03-05T12:47:46.989Z,97614.47
2023-03-05T12:48:50.383Z,97614.53
2023-03-05T12:49:54.022Z,97615.19
2023-03-05T12:50:59.607Z,97618.38
2023-03-05T12:52:06.268Z,97624.41
2023-03-05T12:53:25.112Z,97606.19
2023-03-05T12:54:33.806Z,97618.22
2023-03-05T12:55:47.604Z,97614.63